createdAt,value
2018-08-04T00:00:07.478Z,23.4
2018-08-04T00:05:05.386Z,23.3
2018-08-04T00:10:08.423Z,23.2
2018-08-04T00:15:02.625Z,23.2
2018-08-04T00:20:05.553Z,23.1
2018-08-04T00:25:05.875Z,23
2018-08-04T00:30:05.770Z,22.9
2018-08-04T00:35:02.694Z,22.9
2018-08-04T00:40:07.640Z,22.8
2018-08-04T00:45:08.054Z,22.8
2018-08-04T00:50:12.784Z,22.7
2018-08-04T00:55:05.297Z,22.7
2018-08-04T01:00:02.680Z,22.5
2018-08-04T01:05:08.095Z,22.7
2018-08-04T01:10:02.867Z,22.6
2018-08-04T01:15:08.302Z,22.5
2018-08-04T01:20:05.278Z,22.5
2018-08-04T01:25:08.183Z,22.4
2018-08-04T01:30:02.578Z,22.4
2018-08-04T01:35:02.938Z,22.4
2018-08-04T01:40:02.811Z,22.4
2018-08-04T01:45:25.967Z,22.4
2018-08-04T01:50:05.902Z,22.4
2018-08-04T01:55:05.368Z,22.4
2018-08-04T02:00:02.731Z,22.3
2018-08-04T02:05:10.748Z,22.3
2018-08-04T02:10:10.215Z,22.3
2018-08-04T02:15:05.488Z,22.3
2018-08-04T02:20:05.583Z,22.2
2018-08-04T02:25:02.423Z,22.2
2018-08-04T02:30:02.798Z,22.1
2018-08-04T02:35:08.251Z,21.9
2018-08-04T02:40:02.503Z,21.9
2018-08-04T02:45:02.878Z,21.9
2018-08-04T02:50:17.776Z,21.7
2018-08-04T02:55:05.494Z,21.7
2018-08-04T03:00:02.962Z,21.6
2018-08-04T03:05:03.221Z,21.6
2018-08-04T03:10:03.152Z,21.5
2018-08-04T03:15:10.032Z,21.3
2018-08-04T03:20:05.082Z,21.3
2018-08-04T03:25:07.921Z,21.3
2018-08-04T03:30:05.819Z,21.2
2018-08-04T03:35:02.729Z,21.2
2018-08-04T03:40:05.065Z,21.1
2018-08-04T03:45:02.910Z,21.1
2018-08-04T03:50:05.769Z,21.1
2018-08-04T03:55:02.740Z,21
2018-08-04T04:00:03.075Z,21
2018-08-04T04:05:02.483Z,20.9
2018-08-04T04:10:05.834Z,20.9
2018-08-04T04:15:10.332Z,20.9
2018-08-04T04:20:05.316Z,20.9
2018-08-04T04:25:05.703Z,20.9
2018-08-04T04:30:03.066Z,20.9
2018-08-04T04:35:02.395Z,20.9
2018-08-04T04:40:05.755Z,20.9
2018-08-04T04:45:05.193Z,20.9
2018-08-04T04:50:05.136Z,21
2018-08-04T04:55:08.024Z,21.1
2018-08-04T05:00:03.346Z,21.1
2018-08-04T05:05:02.817Z,21.1
2018-08-04T05:10:05.149Z,21.3
2018-08-04T05:15:05.516Z,21.4
2018-08-04T05:20:02.981Z,21.4
2018-08-04T05:25:07.444Z,21.6
2018-08-04T05:30:13.051Z,21.7
2018-08-04T05:35:03.229Z,21.7
2018-08-04T05:40:05.600Z,21.9
2018-08-04T05:45:02.568Z,21.9
2018-08-04T05:50:03.057Z,22
2018-08-04T05:55:05.875Z,22.3
2018-08-04T06:00:05.813Z,22.4
2018-08-04T06:05:07.750Z,22.6
2018-08-04T06:10:02.542Z,22.6
2018-08-04T06:15:05.435Z,22.8
2018-08-04T06:20:02.875Z,22.8
2018-08-04T06:25:08.332Z,23.1
2018-08-04T06:30:02.910Z,23.1
2018-08-04T06:35:05.832Z,23.3
2018-08-04T06:40:05.202Z,23.5
2018-08-04T06:45:05.875Z,23.6
2018-08-04T06:50:05.766Z,23.7
2018-08-04T06:55:05.192Z,23.8
2018-08-04T07:00:12.889Z,23.9
2018-08-04T07:05:03.088Z,23.9
2018-08-04T07:10:02.946Z,24.1
2018-08-04T07:15:05.875Z,24.4
2018-08-04T07:20:03.240Z,24.4
2018-08-04T07:25:05.243Z,24.6
2018-08-04T07:30:07.774Z,24.8
2018-08-04T07:35:13.285Z,24.9
2018-08-04T07:40:05.688Z,25.1
2018-08-04T07:45:02.646Z,25.1
2018-08-04T07:50:03.019Z,25.2
2018-08-04T07:55:05.136Z,25.6
2018-08-04T08:00:02.612Z,25.6
2018-08-04T08:05:03.106Z,25.7
2018-08-04T08:10:05.615Z,26.1
2018-08-04T08:15:12.765Z,26.3
2018-08-04T08:20:05.730Z,26.5
2018-08-04T08:25:07.803Z,26.7
2018-08-04T08:30:05.737Z,26.7
2018-08-04T08:35:05.125Z,27
2018-08-04T08:40:02.927Z,27
2018-08-04T08:45:04.942Z,27.3
2018-08-04T08:50:04.931Z,27.4
2018-08-04T08:55:02.847Z,27.4
2018-08-04T09:00:13.332Z,27.8
2018-08-04T09:05:02.684Z,27.8
2018-08-04T09:10:02.673Z,28
2018-08-04T09:15:03.048Z,28.1
2018-08-04T09:20:07.700Z,28
2018-08-04T09:25:05.543Z,28.6
2018-08-04T09:30:05.530Z,28.7
2018-08-04T09:35:02.427Z,28.7
2018-08-04T09:40:13.430Z,28.9
2018-08-04T09:45:02.767Z,29
2018-08-04T09:50:05.737Z,29.3
2018-08-04T09:55:02.642Z,29.3
2018-08-04T10:00:05.593Z,29.5
2018-08-04T10:05:25.262Z,29.9
2018-08-04T10:10:08.163Z,30.1
2018-08-04T10:15:02.564Z,30.1
2018-08-04T10:20:05.614Z,30.5
2018-08-04T10:25:02.814Z,30.5
2018-08-04T10:30:05.755Z,30.4
2018-08-04T10:35:10.470Z,30.4
2018-08-04T10:40:04.939Z,30.5
2018-08-04T10:45:07.941Z,30.6
2018-08-04T10:50:05.843Z,30.9
2018-08-04T10:55:05.380Z,31.1
2018-08-04T11:00:02.848Z,31.1
2018-08-04T11:05:03.265Z,31.3
2018-08-04T11:10:10.750Z,31.3
2018-08-04T11:15:05.122Z,31.5
2018-08-04T11:20:05.124Z,31.5
2018-08-04T11:25:05.644Z,31.6
2018-08-04T11:30:08.150Z,31.7
2018-08-04T11:35:10.106Z,31.7
2018-08-04T11:40:05.534Z,31.7
2018-08-04T11:45:15.110Z,31.9
2018-08-04T11:50:02.475Z,31.9
2018-08-04T11:55:05.565Z,32
2018-08-04T12:00:05.687Z,32.2
2018-08-04T12:05:07.666Z,32.2
2018-08-04T12:10:02.512Z,32.2
2018-08-04T12:15:18.155Z,25.9
2018-08-04T12:20:05.208Z,32.3
2018-08-04T12:25:10.752Z,32.5
2018-08-04T12:30:05.694Z,32.5
2018-08-04T12:35:07.691Z,32.5
2018-08-04T12:40:02.570Z,32.4
2018-08-04T12:45:08.062Z,32.2
2018-08-04T12:50:05.047Z,32.4
2018-08-04T12:55:05.588Z,32.6
2018-08-04T13:00:03.099Z,32.6
2018-08-04T13:05:02.515Z,33
2018-08-04T13:10:04.947Z,33.2
2018-08-04T13:15:18.059Z,33.1
2018-08-04T13:20:02.625Z,33.1
2018-08-04T13:25:28.362Z,33.4
2018-08-04T13:30:02.831Z,33.4
2018-08-04T13:35:04.933Z,33.5
2018-08-04T13:40:08.025Z,33.7
2018-08-04T13:45:07.428Z,34
2018-08-04T13:50:02.846Z,34
2018-08-04T13:55:05.174Z,33.9
2018-08-04T14:00:02.579Z,33.8
2018-08-04T14:05:05.781Z,34.2
2018-08-04T14:10:02.645Z,34.2
2018-08-04T14:15:08.233Z,34.6
2018-08-04T14:20:05.356Z,34.7
2018-08-04T14:25:03.261Z,34.7
2018-08-04T14:30:05.278Z,35
2018-08-04T14:35:10.873Z,35.1
2018-08-04T14:40:05.379Z,35.1
2018-08-04T14:45:02.419Z,35.1
2018-08-04T14:50:05.439Z,35.3
2018-08-04T15:00:02.778Z,34.8
2018-08-04T15:05:02.435Z,35.3
2018-08-04T15:10:05.137Z,36
2018-08-04T15:15:08.176Z,36.4
2018-08-04T15:20:05.194Z,37.3
2018-08-04T15:25:05.754Z,37.6
2018-08-04T15:30:03.207Z,37.6
2018-08-04T15:35:05.273Z,36.9
2018-08-04T15:40:05.734Z,36.2
2018-08-04T15:45:10.281Z,35.9
2018-08-04T15:50:02.740Z,35.9
2018-08-04T15:55:05.855Z,35.2
2018-08-04T16:00:10.897Z,34.8
2018-08-04T16:05:02.847Z,34.8
2018-08-04T16:10:02.766Z,34.9
2018-08-04T16:15:05.804Z,35.6
2018-08-04T16:20:10.898Z,35.2
2018-08-04T16:25:03.030Z,35.2
2018-08-04T16:30:07.590Z,33.9
2018-08-04T16:35:05.503Z,33.5
2018-08-04T16:40:03.363Z,33.5
2018-08-04T16:45:02.755Z,33.5
2018-08-04T16:50:05.770Z,33.2
2018-08-04T16:55:02.697Z,33.2
2018-08-04T17:00:05.693Z,32.7
2018-08-04T17:05:02.577Z,32.7
2018-08-04T17:10:12.668Z,32.6
2018-08-04T17:15:05.653Z,32.4
2018-08-04T17:20:03.415Z,32.4
2018-08-04T17:25:05.378Z,32
2018-08-04T17:30:05.307Z,31.8
2018-08-04T17:35:03.218Z,31.8
2018-08-04T17:40:13.212Z,31.6
2018-08-04T17:45:10.232Z,31.5
2018-08-04T17:50:02.653Z,31.5
2018-08-04T17:55:05.611Z,31.5
2018-08-04T18:00:13.250Z,31.3
2018-08-04T18:05:02.487Z,31.3
2018-08-04T18:10:04.935Z,30.8
2018-08-04T18:15:07.925Z,30.5
2018-08-04T18:20:15.107Z,30.3
2018-08-04T18:25:02.943Z,30.3
2018-08-04T18:30:18.532Z,30.2
2018-08-04T18:35:12.974Z,30
2018-08-04T18:40:02.923Z,29.9
2018-08-04T18:45:03.289Z,29.9
2018-08-04T18:50:05.648Z,29.6
2018-08-04T18:55:07.620Z,29.4
2018-08-04T19:00:05.837Z,29.3
2018-08-04T19:05:05.275Z,29.2
2018-08-04T19:10:02.458Z,29.2
2018-08-04T19:15:03.061Z,29.1
2018-08-04T19:20:02.807Z,29.1
2018-08-04T19:25:08.397Z,28.9
2018-08-04T19:30:05.499Z,28.9
2018-08-04T19:35:03.326Z,28.8
2018-08-04T19:40:05.878Z,28.7
2018-08-04T19:45:02.839Z,28.7
2018-08-04T19:50:07.705Z,28.6
2018-08-04T19:55:03.120Z,28.6
2018-08-04T20:00:07.592Z,28.4
2018-08-04T20:05:02.892Z,28.4
2018-08-04T20:10:20.490Z,28.3
2018-08-04T20:15:03.240Z,28.3
2018-08-04T20:20:02.770Z,28.2
2018-08-04T20:25:03.216Z,28.1
2018-08-04T20:30:05.109Z,27.9
2018-08-04T20:35:03.060Z,27.9
2018-08-04T20:40:05.705Z,27.9
2018-08-04T20:45:10.103Z,28
2018-08-04T20:50:07.604Z,28
2018-08-04T20:55:05.517Z,28
2018-08-04T21:00:02.961Z,27.9
2018-08-04T21:05:04.989Z,27.8
2018-08-04T21:10:02.858Z,27.8
2018-08-04T21:15:02.398Z,27.8
2018-08-04T21:20:03.027Z,27.7
2018-08-04T21:25:03.261Z,2
2018-08-04T21:30:02.579Z,27.5
2018-08-04T21:35:10.667Z,27.2
2018-08-04T21:40:02.503Z,27.2
2018-08-04T21:45:05.537Z,26.9
2018-08-04T21:50:08.063Z,26.8
2018-08-04T21:55:05.336Z,26.6
2018-08-04T22:00:15.462Z,26.6
2018-08-04T22:05:08.246Z,26.5
2018-08-04T22:10:05.680Z,26.3
2018-08-04T22:15:05.090Z,26.3
2018-08-04T22:20:05.276Z,26.2
2018-08-04T22:25:10.791Z,26
2018-08-04T22:30:03.197Z,26.1
2018-08-04T22:35:05.143Z,26
2018-08-04T22:40:03.016Z,26
2018-08-04T22:45:02.548Z,25.9
2018-08-04T22:50:02.928Z,25.8
2018-08-04T22:55:02.438Z,25.8
2018-08-04T23:00:02.849Z,25.7
2018-08-04T23:05:08.271Z,25.5
2018-08-04T23:10:05.607Z,25.5
2018-08-04T23:15:05.035Z,25.4
2018-08-04T23:20:05.100Z,25.4
2018-08-04T23:25:05.444Z,25.3
2018-08-04T23:30:02.869Z,25.3
2018-08-04T23:35:04.917Z,25.2
2018-08-04T23:40:07.861Z,25
2018-08-04T23:45:03.144Z,25
2018-08-04T23:50:10.135Z,25
2018-08-04T23:55:03.172Z,25
